ADDS METAR Data INFO
IDs: Format: Raw Decoded Include TAF

Data at: 0441 UTC 24 Apr 2018

KWRL 240353Z AUTO 31010KT 10SM CLR 02/M01 A3039 RMK AO2 SLP311 T00171006
KWRL 240253Z AUTO 32014KT 10SM CLR 02/M01 A3037 RMK AO2 SLP298 T00221006 53023
KWRL 240153Z AUTO 33018KT 10SM BKN065 04/M01 A3034 RMK AO2 PK WND 33031/0134 SLP286 T00391006
KWRL 240053Z AUTO 33018G27KT 10SM OVC070 06/01 A3031 RMK AO2 PK WND 32032/0010 SLP272 T00610006
KWRL 232353Z AUTO 32024G28KT 10SM SCT023 SCT040 OVC065 05/01 A3029 RMK AO2 PK WND 32029/2353 SLP265 60004 T00500006 10050 20017 51010
KWRL 232325Z AUTO 33019G27KT 10SM FEW023 OVC037 05/01 A3029 RMK AO2 PK WND 34027/2318 T00500006
KWRL 232253Z AUTO 32019G26KT 10SM BKN017 OVC025 04/02 A3028 RMK AO2 PK WND 33027/2207 SLP260 T00440017
KWRL 232153Z AUTO 33019G24KT 10SM OVC017 04/02 A3027 RMK AO2 PK WND 32028/2140 RAB19E31 SLP258 P0000 T00390017
KWRL 232053Z AUTO 32017G24KT 10SM BKN015 OVC020 04/02 A3026 RMK AO2 PK WND 33026/2029 RAB04E31 SLP253 P0001 60004 T00390017 53016
KWRL 231953Z AUTO 32015G24KT 10SM BKN016 OVC022 04/02 A3023 RMK AO2 RAE09 SLP244 P0000 T00390022
KWRL 231939Z AUTO 32015G23KT 10SM BKN015 OVC020 04/02 A3022 RMK AO2 RAE09 P0000 T00440022
KWRL 231908Z AUTO 33013KT 10SM -RA OVC013 04/03 A3021 RMK AO2 P0000 T00390028
KWRL 231853Z AUTO 32011KT 9SM -RA BKN008 OVC013 04/03 A3020 RMK AO2 SLP230 P0003 T00390028
KWRL 231753Z AUTO 27008KT 5SM -RA BR OVC007 02/02 A3020 RMK AO2 SNB46E53 SLP232 P0006 60009 T00170017 10078 20017 53023
KWRL 231709Z AUTO 27005KT 5SM -RA BR OVC008 02/02 A3018 RMK AO2 P0002 T00220017
KWRL 231653Z AUTO 28007KT 5SM -RA BR OVC010 03/02 A3017 RMK AO2 RAB01 SLP218 P0003 T00280022
KWRL 231644Z AUTO 28009KT 5SM -RA BR BKN010 OVC018 03/02 A3017 RMK AO2 RAB01 P0002 T00280022
KWRL 231622Z AUTO 29014KT 7SM -RA BKN019 BKN028 OVC033 04/02 A3017 RMK AO2 RAB01 P0001 T00390022
KWRL 231553Z AUTO 30013KT 10SM BKN050 OVC060 06/01 A3015 RMK AO2 SLP204 T00610011
KWRL 231453Z AUTO 32013KT 10SM FEW065 07/01 A3012 RMK AO2 SLP195 T00720011 51029
KWRL 231353Z AUTO 32013KT 10SM CLR 06/01 A3011 RMK AO2 SLP184 T00610011
KWRL 231253Z AUTO 30007KT 10SM FEW090 07/01 A3007 RMK AO2 SLP167 T00720006
KWRL 231153Z AUTO 33008KT 10SM CLR 08/M01 A3003 RMK AO2 SLP144 T00781006 10122 20078 53015
KWRL 231053Z AUTO 31006KT 10SM CLR 08/M01 A3001 RMK AO2 SLP136 T00831006
KWRL 230953Z AUTO 31008KT 10SM CLR 09/00 A2999 RMK AO2 SLP130 T00890000
KWRL 230853Z AUTO 34006KT 10SM CLR 09/M01 A2998 RMK AO2 SLP128 T00941006 53009
KWRL 230753Z AUTO 02004KT 10SM CLR 09/01 A2997 RMK AO2 SLP126 T00940006
KWRL 230653Z AUTO 35009KT 10SM CLR 12/01 A2996 RMK AO2 SLP121 T01170011 402330011
KWRL 230553Z AUTO 03006KT 10SM CLR 12/01 A2995 RMK AO2 SLP121 T01220011 10228 20117 50005
KWRL 230453Z AUTO 00000KT 10SM CLR 13/00 A2995 RMK AO2 SLP122 T01330000
KWRL 230353Z AUTO 03006KT 10SM CLR 13/00 A2994 RMK AO2 SLP122 T01330000
KWRL 230253Z AUTO 04004KT 10SM CLR 12/01 A2993 RMK AO2 SLP122 T01220011 55002
KWRL 230153Z AUTO 04006KT 10SM CLR 17/01 A2993 RMK AO2 SLP117 T01670011
KWRL 230053Z AUTO 05008KT 10SM CLR 19/M01 A2993 RMK AO2 SLP121 T01941006
KWRL 222353Z AUTO 07007KT 10SM CLR 23/M01 A2994 RMK AO2 SLP117 T02281011 10233 20156 56020
KWRL 222253Z AUTO 03008KT 10SM CLR 23/M01 A2995 RMK AO2 SLP124 T02281006
KWRL 222153Z AUTO VRB03KT 10SM CLR 22/M01 A2997 RMK AO2 SLP133 T02221006
KWRL 222053Z AUTO 14003KT 10SM CLR 21/02 A3001 RMK AO2 SLP144 T02060017 56029
KWRL 221953Z AUTO 00000KT 10SM CLR 19/01 A3003 RMK AO2 SLP154 T01940006
KWRL 221853Z AUTO VRB03KT 10SM CLR 18/01 A3007 RMK AO2 SLP172 T01780006
KWRL 221753Z AUTO VRB04KT 10SM CLR 16/M01 A3010 RMK AO2 SLP181 T01561006 10156 20017 58012
KWRL 221653Z AUTO 00000KT 10SM CLR 14/M01 A3012 RMK AO2 SLP187 T01391011